createdAt,value
2022-10-29T00:02:22.151Z,16.04
2022-10-29T00:04:49.770Z,16.13
2022-10-29T00:07:17.084Z,16.01
2022-10-29T00:09:44.473Z,16.04
2022-10-29T00:12:12.051Z,15.75
2022-10-29T00:14:39.391Z,15.48
2022-10-29T00:17:06.693Z,15.70
2022-10-29T00:19:34.271Z,16.11
2022-10-29T00:22:01.634Z,15.91
2022-10-29T00:24:28.958Z,16.08
2022-10-29T00:26:56.516Z,16.06
2022-10-29T00:29:23.888Z,16.08
2022-10-29T00:31:51.298Z,16.12
2022-10-29T00:34:18.970Z,16.05
2022-10-29T00:36:46.384Z,16.05
2022-10-29T00:39:15.254Z,16.03
2022-10-29T00:41:42.946Z,15.96
2022-10-29T00:44:20.508Z,15.99
2022-10-29T00:46:48.565Z,16.09
2022-10-29T00:49:15.902Z,16.00
2022-10-29T00:51:43.362Z,16.01
2022-10-29T00:54:11.624Z,15.73
2022-10-29T00:56:41.531Z,15.85
2022-10-29T00:59:08.891Z,16.05
2022-10-29T01:01:36.822Z,15.96
2022-10-29T01:04:04.453Z,15.94
2022-10-29T01:06:31.751Z,16.06
2022-10-29T01:08:59.359Z,15.89
2022-10-29T01:11:38.834Z,15.90
2022-10-29T01:14:15.572Z,16.12
2022-10-29T01:16:42.674Z,16.00
2022-10-29T01:19:34.475Z,16.18
2022-10-29T01:22:17.501Z,16.03
2022-10-29T01:25:20.279Z,16.16
2022-10-29T01:28:02.124Z,16.29
2022-10-29T01:30:51.433Z,15.88
2022-10-29T01:33:37.187Z,15.76
2022-10-29T01:36:07.686Z,15.85
2022-10-29T01:38:36.735Z,15.97
2022-10-29T01:41:13.076Z,16.03
2022-10-29T01:43:52.066Z,16.12
2022-10-29T01:46:21.888Z,16.19
2022-10-29T01:48:51.890Z,16.25
2022-10-29T01:51:23.848Z,16.05
2022-10-29T01:53:51.579Z,16.29
2022-10-29T01:56:18.879Z,15.98
2022-10-29T01:58:49.609Z,15.98
2022-10-29T02:01:54.388Z,16.02
2022-10-29T02:04:33.184Z,15.92
2022-10-29T02:07:07.921Z,16.02
2022-10-29T02:10:03.507Z,16.00
2022-10-29T02:12:33.635Z,16.17
2022-10-29T02:15:08.673Z,15.48
2022-10-29T02:17:36.011Z,14.87
2022-10-29T02:20:08.236Z,14.90
2022-10-29T02:22:35.590Z,15.39
2022-10-29T02:25:02.992Z,15.48
2022-10-29T02:27:30.649Z,15.61
2022-10-29T02:29:57.981Z,15.66
2022-10-29T02:32:25.337Z,15.57
2022-10-29T02:34:52.898Z,15.74
2022-10-29T02:37:20.236Z,15.60
2022-10-29T02:39:47.546Z,15.40
2022-10-29T02:42:15.175Z,15.54
2022-10-29T02:44:42.480Z,15.59
2022-10-29T02:47:09.793Z,15.56
2022-10-29T02:49:37.442Z,15.57
2022-10-29T02:52:04.977Z,15.63
2022-10-29T02:54:32.308Z,15.75
2022-10-29T02:56:59.900Z,15.93
2022-10-29T02:59:27.250Z,15.63
2022-10-29T03:01:54.713Z,15.75
2022-10-29T03:04:22.344Z,15.77
2022-10-29T03:06:49.718Z,15.70
2022-10-29T03:09:17.023Z,15.62
2022-10-29T03:11:44.595Z,15.69
2022-10-29T03:14:12.003Z,15.68
2022-10-29T03:16:39.325Z,15.94
2022-10-29T03:19:06.948Z,15.64
2022-10-29T03:21:34.307Z,15.86
2022-10-29T03:24:01.641Z,15.68
2022-10-29T03:26:29.236Z,15.86
2022-10-29T03:28:56.643Z,15.76
2022-10-29T03:31:23.967Z,15.86
2022-10-29T03:33:51.588Z,15.67
2022-10-29T03:36:18.930Z,15.76
2022-10-29T03:38:46.319Z,15.69
2022-10-29T03:41:13.919Z,15.72
2022-10-29T03:43:41.381Z,15.66
2022-10-29T03:46:08.798Z,15.61
2022-10-29T03:48:36.367Z,15.68
2022-10-29T03:51:07.738Z,15.48
2022-10-29T03:53:35.746Z,15.82
2022-10-29T03:56:03.642Z,15.52
2022-10-29T03:58:30.973Z,15.84
2022-10-29T04:01:02.841Z,15.72
2022-10-29T04:03:31.410Z,15.56
2022-10-29T04:05:59.487Z,15.78
2022-10-29T04:08:26.853Z,15.86
2022-10-29T04:10:54.459Z,15.59
2022-10-29T04:13:21.777Z,15.58
2022-10-29T04:15:49.123Z,15.68
2022-10-29T04:18:16.695Z,15.80
2022-10-29T04:22:31.620Z,15.85
2022-10-29T04:29:06.472Z,15.94
2022-10-29T04:31:33.809Z,15.68
2022-10-29T04:34:01.127Z,15.40
2022-10-29T04:36:28.697Z,15.50
2022-10-29T04:38:56.040Z,15.65
2022-10-29T04:41:23.366Z,15.91
2022-10-29T04:43:50.936Z,15.92
2022-10-29T04:46:18.265Z,15.47
2022-10-29T04:48:45.582Z,15.57
2022-10-29T04:51:25.818Z,15.38
2022-10-29T04:53:53.300Z,15.54
2022-10-29T04:56:20.913Z,15.62
2022-10-29T04:58:51.412Z,15.62
2022-10-29T05:01:19.042Z,15.58
2022-10-29T05:03:46.768Z,15.45
2022-10-29T05:06:14.180Z,15.61
2022-10-29T05:08:41.491Z,15.41
2022-10-29T05:11:09.072Z,15.32
2022-10-29T05:13:36.419Z,15.39
2022-10-29T05:16:03.929Z,15.28
2022-10-29T05:18:31.512Z,14.60
2022-10-29T05:20:58.897Z,14.89
2022-10-29T05:23:26.268Z,14.88
2022-10-29T05:25:55.258Z,14.97
2022-10-29T05:28:22.951Z,15.05
2022-10-29T05:30:51.130Z,15.23
2022-10-29T05:33:20.437Z,15.05
2022-10-29T05:35:47.930Z,15.02
2022-10-29T05:38:15.449Z,15.14
2022-10-29T05:40:45.039Z,15.14
2022-10-29T05:43:13.395Z,15.33
2022-10-29T05:45:40.812Z,15.29
2022-10-29T05:48:08.443Z,15.29
2022-10-29T05:50:35.955Z,15.29
2022-10-29T05:53:04.838Z,15.44
2022-10-29T05:55:33.343Z,15.51
2022-10-29T05:58:02.112Z,15.36
2022-10-29T06:00:31.364Z,15.24
2022-10-29T06:02:59.183Z,15.08
2022-10-29T06:05:26.902Z,15.06
2022-10-29T06:07:56.102Z,15.15
2022-10-29T06:10:24.625Z,14.95
2022-10-29T06:12:51.969Z,15.27
2022-10-29T06:15:19.344Z,15.57
2022-10-29T06:17:47.032Z,15.42
2022-10-29T06:20:15.365Z,15.20
2022-10-29T06:22:42.697Z,15.43
2022-10-29T06:25:10.373Z,15.42
2022-10-29T06:27:37.685Z,15.34
2022-10-29T06:30:05.729Z,15.62
2022-10-29T06:32:33.339Z,15.49
2022-10-29T06:35:00.658Z,15.47
2022-10-29T06:37:29.698Z,15.36
2022-10-29T06:39:57.276Z,15.66
2022-10-29T06:42:24.601Z,15.73
2022-10-29T06:44:51.932Z,15.14
2022-10-29T06:47:19.619Z,15.32
2022-10-29T06:49:46.944Z,15.74
2022-10-29T06:52:14.250Z,14.89
2022-10-29T06:54:41.864Z,15.01
2022-10-29T06:57:09.170Z,14.86
2022-10-29T06:59:36.484Z,15.35
2022-10-29T07:02:04.115Z,15.32
2022-10-29T07:04:31.489Z,15.62
2022-10-29T07:06:58.800Z,15.38
2022-10-29T07:09:26.456Z,15.39
2022-10-29T07:11:53.804Z,15.48
2022-10-29T07:14:21.112Z,15.32
2022-10-29T07:16:48.747Z,15.69
2022-10-29T07:19:16.092Z,15.64
2022-10-29T07:21:43.674Z,15.59
2022-10-29T07:24:11.258Z,15.60
2022-10-29T07:26:38.611Z,15.41
2022-10-29T07:29:05.931Z,15.76
2022-10-29T07:31:33.517Z,15.95
2022-10-29T07:34:00.879Z,15.99
2022-10-29T07:36:30.280Z,15.77
2022-10-29T07:38:57.905Z,15.21
2022-10-29T07:41:25.683Z,14.85
2022-10-29T07:43:53.029Z,15.24
2022-10-29T07:46:20.842Z,15.48
2022-10-29T07:48:48.215Z,15.61
2022-10-29T07:51:15.525Z,15.65
2022-10-29T07:53:43.140Z,15.47
2022-10-29T07:56:10.493Z,15.79
2022-10-29T07:58:37.842Z,15.98
2022-10-29T08:01:05.521Z,15.99
2022-10-29T08:03:33.601Z,15.54
2022-10-29T08:06:00.923Z,15.57
2022-10-29T08:08:28.252Z,16.06
2022-10-29T08:11:00.194Z,15.67
2022-10-29T08:13:27.571Z,15.87
2022-10-29T08:15:54.913Z,15.75
2022-10-29T08:18:22.517Z,16.02
2022-10-29T08:20:49.869Z,15.89
2022-10-29T08:23:17.239Z,16.08
2022-10-29T08:25:44.969Z,15.83
2022-10-29T08:28:13.855Z,16.14
2022-10-29T08:30:41.816Z,15.95
2022-10-29T08:33:09.843Z,15.82
2022-10-29T08:35:37.195Z,16.03
2022-10-29T08:38:04.530Z,16.12
2022-10-29T08:40:44.091Z,15.77
2022-10-29T08:43:35.669Z,16.05
2022-10-29T08:46:03.296Z,15.86
2022-10-29T08:48:33.584Z,15.89
2022-10-29T08:51:20.574Z,16.14
2022-10-29T08:54:17.058Z,16.05
2022-10-29T08:56:40.265Z,15.76
2022-10-29T08:59:16.273Z,15.35
2022-10-29T09:01:44.114Z,15.85
2022-10-29T09:04:22.505Z,16.00
2022-10-29T09:07:17.545Z,16.04
2022-10-29T09:09:55.089Z,16.27
2022-10-29T09:13:00.204Z,16.26
2022-10-29T09:15:56.357Z,16.19
2022-10-29T09:18:30.234Z,16.59
2022-10-29T09:21:13.095Z,16.56
2022-10-29T09:23:56.346Z,16.61
2022-10-29T09:26:58.327Z,16.27
2022-10-29T09:29:59.543Z,16.31
2022-10-29T09:32:32.205Z,16.57
2022-10-29T09:35:14.868Z,16.21
2022-10-29T09:37:44.421Z,16.23
2022-10-29T09:40:31.277Z,16.82
2022-10-29T09:43:00.375Z,16.97
2022-10-29T09:45:36.689Z,16.33
2022-10-29T09:48:15.542Z,16.60
2022-10-29T09:51:01.909Z,17.10
2022-10-29T09:53:29.688Z,16.78
2022-10-29T09:55:56.995Z,17.13
2022-10-29T09:58:26.488Z,17.08
2022-10-29T10:00:54.676Z,17.05
2022-10-29T10:03:37.939Z,17.23
2022-10-29T10:06:07.499Z,17.03
2022-10-29T10:08:35.433Z,16.99
2022-10-29T10:11:04.892Z,17.36
2022-10-29T10:13:36.715Z,16.33
2022-10-29T10:16:06.025Z,15.98
2022-10-29T10:18:33.354Z,16.70
2022-10-29T10:21:03.934Z,16.60
2022-10-29T10:23:52.597Z,16.55
2022-10-29T10:26:28.760Z,16.62
2022-10-29T10:29:15.597Z,16.04
2022-10-29T10:32:03.041Z,16.32
2022-10-29T10:34:33.282Z,16.19
2022-10-29T10:37:09.459Z,15.98
2022-10-29T10:39:36.874Z,16.27
2022-10-29T10:42:24.285Z,16.40
2022-10-29T10:44:59.446Z,16.30
2022-10-29T10:47:28.690Z,16.25
2022-10-29T10:50:32.482Z,16.32
2022-10-29T10:53:17.377Z,16.47
2022-10-29T10:55:57.893Z,16.61
2022-10-29T10:58:31.798Z,16.35
2022-10-29T11:01:09.345Z,16.57
2022-10-29T11:03:45.380Z,16.96
2022-10-29T11:06:21.067Z,16.91
2022-10-29T11:09:18.736Z,16.62
2022-10-29T11:11:59.012Z,16.53
2022-10-29T11:14:30.684Z,16.23
2022-10-29T11:16:59.299Z,16.68
2022-10-29T11:19:40.522Z,16.59
2022-10-29T11:22:26.712Z,16.68
2022-10-29T11:24:56.266Z,16.61
2022-10-29T11:27:47.775Z,16.80
2022-10-29T11:30:16.239Z,17.16
2022-10-29T11:33:05.313Z,16.59
2022-10-29T11:35:58.823Z,16.59
2022-10-29T11:38:33.376Z,16.85
2022-10-29T11:41:28.307Z,17.03
2022-10-29T11:43:55.899Z,17.25
2022-10-29T11:47:04.304Z,16.05
2022-10-29T11:50:16.112Z,16.16
2022-10-29T11:52:46.054Z,16.48
2022-10-29T11:55:52.757Z,16.57
2022-10-29T11:58:24.530Z,16.93
2022-10-29T12:01:12.218Z,16.97
2022-10-29T12:03:42.119Z,17.21
2022-10-29T12:06:20.035Z,16.41
2022-10-29T12:09:23.584Z,15.99
2022-10-29T12:12:23.415Z,15.88
2022-10-29T12:15:18.844Z,15.96
2022-10-29T12:18:09.040Z,16.39
2022-10-29T12:20:59.750Z,16.64
2022-10-29T12:23:41.947Z,16.73
2022-10-29T12:26:23.322Z,16.42
2022-10-29T12:29:00.102Z,16.84
2022-10-29T12:31:47.605Z,17.21
2022-10-29T12:34:26.354Z,17.23
2022-10-29T12:36:56.685Z,17.03
2022-10-29T12:39:30.902Z,17.16
2022-10-29T12:42:01.515Z,17.27
2022-10-29T12:44:44.965Z,17.40
2022-10-29T12:47:38.146Z,17.34
2022-10-29T12:50:44.915Z,17.11
2022-10-29T12:53:24.831Z,17.36
2022-10-29T12:55:52.187Z,17.45
2022-10-29T12:58:57.389Z,17.35
2022-10-29T13:01:43.867Z,17.04
2022-10-29T13:04:27.901Z,17.21
2022-10-29T13:10:24.541Z,16.64
2022-10-29T13:13:05.518Z,16.95
2022-10-29T13:15:43.821Z,17.22
2022-10-29T13:18:23.615Z,16.75
2022-10-29T13:20:52.462Z,15.86
2022-10-29T13:23:22.684Z,16.59
2022-10-29T13:25:59.038Z,16.61
2022-10-29T13:28:26.486Z,15.47
2022-10-29T13:31:13.958Z,15.86
2022-10-29T13:33:41.414Z,15.66
2022-10-29T13:36:18.936Z,15.85
2022-10-29T13:39:04.361Z,16.48
2022-10-29T13:41:42.367Z,16.03
2022-10-29T13:44:11.278Z,15.69
2022-10-29T13:46:53.058Z,16.41
2022-10-29T13:49:23.595Z,15.92
2022-10-29T13:51:56.057Z,16.27
2022-10-29T13:54:37.965Z,16.08
2022-10-29T13:57:31.950Z,16.35
2022-10-29T14:00:03.666Z,16.47
2022-10-29T14:02:55.043Z,16.09
2022-10-29T14:05:32.087Z,16.36
2022-10-29T14:08:28.659Z,15.91
2022-10-29T14:10:59.561Z,15.80
2022-10-29T14:13:30.872Z,16.02
2022-10-29T14:16:07.468Z,15.73
2022-10-29T14:18:41.285Z,15.94
2022-10-29T14:21:36.598Z,15.99
2022-10-29T14:24:04.988Z,16.26
2022-10-29T14:26:34.239Z,16.16
2022-10-29T14:29:31.001Z,15.82
2022-10-29T14:32:13.087Z,16.08
2022-10-29T14:34:45.305Z,15.61
2022-10-29T14:37:18.841Z,15.95
2022-10-29T14:39:57.436Z,15.91
2022-10-29T14:42:33.380Z,15.61
2022-10-29T14:45:03.374Z,15.78
2022-10-29T14:47:34.879Z,15.83
2022-10-29T14:50:03.698Z,15.68
2022-10-29T14:52:34.151Z,15.47
2022-10-29T14:55:03.290Z,15.72
2022-10-29T14:57:32.610Z,15.91
2022-10-29T15:00:04.753Z,14.35
2022-10-29T15:02:38.702Z,14.92
2022-10-29T15:05:28.971Z,15.30
2022-10-29T15:08:11.778Z,15.67
2022-10-29T15:10:48.638Z,14.95
2022-10-29T15:13:28.162Z,15.68
2022-10-29T15:16:16.783Z,15.60
2022-10-29T15:18:50.931Z,15.92
2022-10-29T15:21:22.687Z,15.94
2022-10-29T15:23:52.532Z,16.07
2022-10-29T15:26:23.198Z,16.03
2022-10-29T15:28:52.243Z,15.89
2022-10-29T15:31:40.468Z,16.12
2022-10-29T15:34:09.255Z,16.05
2022-10-29T15:36:46.429Z,15.97
2022-10-29T15:39:22.931Z,16.17
2022-10-29T15:41:50.457Z,16.15
2022-10-29T15:45:07.830Z,16.35
2022-10-29T15:47:36.270Z,15.99
2022-10-29T15:50:09.630Z,16.33
2022-10-29T15:52:38.764Z,16.12
2022-10-29T15:55:27.880Z,15.37
2022-10-29T15:58:10.842Z,15.76
2022-10-29T16:00:38.485Z,15.88
2022-10-29T16:03:23.162Z,16.27
2022-10-29T16:05:53.857Z,15.81
2022-10-29T16:08:29.716Z,15.42
2022-10-29T16:10:57.362Z,15.43
2022-10-29T16:13:25.363Z,15.51
2022-10-29T16:15:52.732Z,16.00
2022-10-29T16:18:20.183Z,16.18
2022-10-29T16:20:48.389Z,16.21
2022-10-29T16:23:15.755Z,16.15
2022-10-29T16:25:43.078Z,16.09
2022-10-29T16:28:10.756Z,16.04
2022-10-29T16:30:41.050Z,16.27
2022-10-29T16:33:10.559Z,16.28
2022-10-29T16:35:38.252Z,16.31
2022-10-29T16:38:05.576Z,16.49
2022-10-29T16:40:32.908Z,16.12
2022-10-29T16:43:00.793Z,16.17
2022-10-29T16:45:29.936Z,16.31
2022-10-29T16:47:57.819Z,16.29
2022-10-29T16:50:27.366Z,16.29
2022-10-29T16:53:01.382Z,16.25
2022-10-29T16:55:29.208Z,16.52
2022-10-29T16:57:56.992Z,16.58
2022-10-29T17:00:25.987Z,16.44
2022-10-29T17:02:53.698Z,16.09
2022-10-29T17:05:21.227Z,16.17
2022-10-29T17:07:48.553Z,16.11
2022-10-29T17:10:16.176Z,16.39
2022-10-29T17:12:43.488Z,16.48
2022-10-29T17:15:10.831Z,16.40
2022-10-29T17:17:41.073Z,16.16
2022-10-29T17:20:11.286Z,16.32
2022-10-29T17:22:38.935Z,16.48
2022-10-29T17:25:06.643Z,16.08
2022-10-29T17:27:33.952Z,16.42
2022-10-29T17:30:01.593Z,15.80
2022-10-29T17:32:32.550Z,15.92
2022-10-29T17:35:00.252Z,16.23
2022-10-29T17:37:27.878Z,16.18
2022-10-29T17:39:55.189Z,15.56
2022-10-29T17:42:22.546Z,15.89
2022-10-29T17:44:50.165Z,16.14
2022-10-29T17:47:17.468Z,16.31
2022-10-29T17:49:44.806Z,16.23
2022-10-29T17:52:12.440Z,15.16
2022-10-29T17:54:39.771Z,15.81
2022-10-29T17:57:07.109Z,15.83
2022-10-29T17:59:34.730Z,14.69
2022-10-29T18:02:02.166Z,15.38
2022-10-29T18:04:29.815Z,15.61
2022-10-29T18:06:57.197Z,15.66
2022-10-29T18:09:24.547Z,16.25
2022-10-29T18:11:52.168Z,15.70
2022-10-29T18:14:19.544Z,15.75
2022-10-29T18:16:46.915Z,15.98
2022-10-29T18:19:14.557Z,15.85
2022-10-29T18:21:41.891Z,15.38
2022-10-29T18:24:09.410Z,15.65
2022-10-29T18:26:36.996Z,15.51
2022-10-29T18:29:08.918Z,15.66
2022-10-29T18:31:36.621Z,16.01
2022-10-29T18:34:05.997Z,16.06
2022-10-29T18:36:35.647Z,16.21
2022-10-29T18:39:04.180Z,16.21
2022-10-29T18:41:31.528Z,16.22
2022-10-29T18:43:59.091Z,16.11
2022-10-29T18:46:26.769Z,15.98
2022-10-29T18:48:54.101Z,16.05
2022-10-29T18:51:29.297Z,16.33
2022-10-29T18:54:00.019Z,16.22
2022-10-29T18:56:28.098Z,15.84
2022-10-29T18:58:55.936Z,15.88
2022-10-29T19:01:25.067Z,16.30
2022-10-29T19:04:00.312Z,16.04
2022-10-29T19:06:29.309Z,16.17
2022-10-29T19:08:56.676Z,16.26
2022-10-29T19:11:27.566Z,15.99
2022-10-29T19:13:59.663Z,15.92
2022-10-29T19:16:27.289Z,15.90
2022-10-29T19:18:56.015Z,16.05
2022-10-29T19:21:23.421Z,16.12
2022-10-29T19:23:55.203Z,15.77
2022-10-29T19:26:22.825Z,15.69
2022-10-29T19:28:50.186Z,16.09
2022-10-29T19:31:22.491Z,16.02
2022-10-29T19:33:50.461Z,16.04
2022-10-29T19:36:17.902Z,16.19
2022-10-29T19:38:45.284Z,16.11
2022-10-29T19:41:13.021Z,16.52
2022-10-29T19:43:40.502Z,15.92
2022-10-29T19:46:08.792Z,15.36
2022-10-29T19:48:36.408Z,15.31
2022-10-29T19:51:03.815Z,15.33
2022-10-29T19:53:31.330Z,15.60
2022-10-29T19:55:58.964Z,15.82
2022-10-29T19:58:27.189Z,15.96
2022-10-29T20:00:54.827Z,14.56
2022-10-29T20:03:22.513Z,14.88
2022-10-29T20:05:49.874Z,15.46
2022-10-29T20:08:17.216Z,15.70
2022-10-29T20:10:44.807Z,15.51
2022-10-29T20:13:12.148Z,15.78
2022-10-29T20:15:40.132Z,16.00
2022-10-29T20:18:07.797Z,15.94
2022-10-29T20:20:35.171Z,15.95
2022-10-29T20:23:02.644Z,16.11
2022-10-29T20:25:30.403Z,16.11
2022-10-29T20:27:59.434Z,16.33
2022-10-29T20:30:26.741Z,15.81
2022-10-29T20:32:54.470Z,15.55
2022-10-29T20:35:22.205Z,15.93
2022-10-29T20:37:49.645Z,15.96
2022-10-29T20:40:17.299Z,15.71
2022-10-29T20:42:44.709Z,15.66
2022-10-29T20:45:12.065Z,15.76
2022-10-29T20:47:39.693Z,16.08
2022-10-29T20:50:07.281Z,16.19
2022-10-29T20:52:34.595Z,16.04
2022-10-29T20:55:02.160Z,16.09
2022-10-29T20:57:29.602Z,16.04
2022-10-29T20:59:58.472Z,15.87
2022-10-29T21:02:26.130Z,15.92
2022-10-29T21:04:53.543Z,16.06
2022-10-29T21:07:20.953Z,16.18
2022-10-29T21:09:48.569Z,16.14
2022-10-29T21:12:15.920Z,16.07
2022-10-29T21:14:43.251Z,16.04
2022-10-29T21:17:11.181Z,16.02
2022-10-29T21:19:38.506Z,16.36
2022-10-29T21:22:05.927Z,16.31
2022-10-29T21:24:33.572Z,15.28
2022-10-29T21:27:00.923Z,15.55
2022-10-29T21:29:28.256Z,16.02
2022-10-29T21:31:55.830Z,15.86
2022-10-29T21:34:23.160Z,15.92
2022-10-29T21:36:50.508Z,15.94
2022-10-29T21:39:18.112Z,16.13
2022-10-29T21:41:45.462Z,15.94
2022-10-29T21:44:12.816Z,15.83
2022-10-29T21:46:40.691Z,15.68
2022-10-29T21:49:08.020Z,15.82
2022-10-29T21:51:35.330Z,15.92
2022-10-29T21:54:02.933Z,15.94
2022-10-29T21:56:30.378Z,15.92
2022-10-29T21:58:57.754Z,15.33
2022-10-29T22:01:25.425Z,15.14
2022-10-29T22:03:53.074Z,15.24
2022-10-29T22:06:21.434Z,14.85
2022-10-29T22:08:53.912Z,15.03
2022-10-29T22:11:21.715Z,15.47
2022-10-29T22:13:48.986Z,15.58
2022-10-29T22:16:16.243Z,15.82
2022-10-29T22:18:44.275Z,16.08
2022-10-29T22:21:12.485Z,16.01
2022-10-29T22:23:47.022Z,15.83
2022-10-29T22:26:15.611Z,16.06
2022-10-29T22:28:43.007Z,16.00
2022-10-29T22:31:10.727Z,15.89
2022-10-29T22:33:38.262Z,15.68
2022-10-29T22:36:06.511Z,15.67
2022-10-29T22:38:33.801Z,15.67
2022-10-29T22:41:08.818Z,16.11
2022-10-29T22:43:36.271Z,15.91
2022-10-29T22:46:04.011Z,15.76
2022-10-29T22:48:31.380Z,15.61
2022-10-29T22:51:02.703Z,15.89
2022-10-29T22:53:30.637Z,15.73
2022-10-29T22:55:58.047Z,16.06
2022-10-29T22:58:25.582Z,16.03
2022-10-29T23:01:03.596Z,16.07
2022-10-29T23:03:30.952Z,16.07
2022-10-29T23:06:02.678Z,16.08
2022-10-29T23:08:30.043Z,15.95
2022-10-29T23:10:57.345Z,15.93
2022-10-29T23:13:24.951Z,16.11
2022-10-29T23:15:52.773Z,15.86
2022-10-29T23:18:20.118Z,15.96
2022-10-29T23:20:47.765Z,15.41
2022-10-29T23:23:15.105Z,15.80
2022-10-29T23:25:42.890Z,15.55
2022-10-29T23:28:10.476Z,15.17
2022-10-29T23:30:37.803Z,15.21
2022-10-29T23:33:05.110Z,14.16
2022-10-29T23:35:34.807Z,15.14
2022-10-29T23:38:02.141Z,15.49
2022-10-29T23:40:29.443Z,14.57
2022-10-29T23:42:57.037Z,14.83
2022-10-29T23:45:24.365Z,15.34
2022-10-29T23:47:51.679Z,15.40
2022-10-29T23:50:19.276Z,15.31
2022-10-29T23:52:46.622Z,15.66
2022-10-29T23:55:14.015Z,15.51
2022-10-29T23:57:41.634Z,15.60
